Nautilus — ISPC — position and weather

sailwx.info

Track history (hours):
 
Tides and Currents Weather Stations Pressure Air Temp Water Temp Dewpoint Dewpoint Depression Visibility Wind Speed Wind Dir Waves Ship Positions

Nautilus

Last reported at 2016-Sep-28 08:34 UTC. Time now 2016-Sep-28 10:21 UTC.
Position N 42°49' E 010°12'.

Length 25 m.

Type: Ship. MMSI: 247205700.

Date/timePositionNaut miles runAvg speedWind from/ knotsBaromVisibWave heightAir tempDewpointWater temp
2016-Sep-28 08:34N 42°49' E 010°12'0 0.0
2016-Sep-28 03:30N 42°49' E 010°12'0 0.0
2016-Sep-28 02:34N 42°49' E 010°12'0 0.0
2016-Sep-28 01:34N 42°49' E 010°12'0 0.0
2016-Sep-27 23:32N 42°49' E 010°12'0 0.0
2016-Sep-27 19:34N 42°49' E 010°12'0 0.0
2016-Sep-27 13:33N 42°48' E 010°12'0 0.1
2016-Sep-27 10:32N 42°49' E 010°12'0 0.0
2016-Sep-27 00:33N 42°49' E 010°12'0 0.0
2016-Sep-26 20:33N 42°49' E 010°12'0 0.0
2016-Sep-26 19:34N 42°49' E 010°12'3 0.7
2016-Sep-26 15:32N 42°49' E 010°08'3 1.4
2016-Sep-26 13:32N 42°48' E 010°12'0 0.1
2016-Sep-26 11:13N 42°49' E 010°12'0 0.0
2016-Sep-25 21:20N 42°49' E 010°12'0 0.0
2016-Sep-25 17:33N 42°49' E 010°12'0 0.0
2016-Sep-25 16:30N 42°49' E 010°12'2 2.5
2016-Sep-25 15:32N 42°49' E 010°09'2 0.8
2016-Sep-25 12:32N 42°48' E 010°12'0 0.2
2016-Sep-25 11:33N 42°49' E 010°12'0 0.0
2016-Sep-25 10:32N 42°49' E 010°12'0 0.0
2016-Sep-25 09:34N 42°49' E 010°12'0 0.0
2016-Sep-25 07:34N 42°49' E 010°12'0 0.0
2016-Sep-25 04:33N 42°49' E 010°12'0 0.0
2016-Sep-25 00:32N 42°49' E 010°12'0 0.0
2016-Sep-24 22:31N 42°49' E 010°12'0 0.0
2016-Sep-24 21:33N 42°49' E 010°12'0 0.0
2016-Sep-24 19:33N 42°49' E 010°12'0 0.0
2016-Sep-24 18:34N 42°49' E 010°12'0 0.0
2016-Sep-24 17:34N 42°49' E 010°12'0 0.0
2016-Sep-24 16:33N 42°49' E 010°12'3 1.3
2016-Sep-24 14:03N 42°48' E 010°07'3 2.2
2016-Sep-24 12:33N 42°48' E 010°12'0 0.0
2016-Sep-24 09:31N 42°49' E 010°12'0 0.0
2016-Sep-24 03:33N 42°49' E 010°12'0 0.0
2016-Sep-24 00:21N 42°49' E 010°12'0 0.0
2016-Sep-23 19:32N 42°49' E 010°12'0 0.0
2016-Sep-23 16:24N 42°49' E 010°12'0 0.1
2016-Sep-23 13:19N 42°48' E 010°12'0 0.0
2016-Sep-23 09:33N 42°49' E 010°12'0 0.0
2016-Sep-23 06:27N 42°49' E 010°12'0 0.0
2016-Sep-23 04:32N 42°49' E 010°12'0 0.0
2016-Sep-23 03:29N 42°49' E 010°12'0 0.0
2016-Sep-23 02:31N 42°49' E 010°12'0 0.0
2016-Sep-23 01:33N 42°49' E 010°12'0 0.0
2016-Sep-23 00:32N 42°49' E 010°12'0 0.0
2016-Sep-22 23:30N 42°49' E 010°12'0 0.0
2016-Sep-22 20:32N 42°49' E 010°12'0 0.0
2016-Sep-22 12:33N 42°48' E 010°12'0 0.0
2016-Sep-22 03:30N 42°49' E 010°12'0 0.0
2016-Sep-21 19:32N 42°49' E 010°12'0 0.0
2016-Sep-21 16:33N 42°49' E 010°12'0 0.0
2016-Sep-20 17:33N 42°49' E 010°12'0 0.0
2016-Sep-20 13:33N 42°48' E 010°12'0 0.0
2016-Sep-20 10:32N 42°49' E 010°12'0 0.0
2016-Sep-20 08:30N 42°49' E 010°12'0 0.0
2016-Sep-20 02:33N 42°49' E 010°12'0 0.0
2016-Sep-19 23:33N 42°49' E 010°12'0 0.0
2016-Sep-19 19:31N 42°49' E 010°12'0 0.0
2016-Sep-19 18:31N 42°49' E 010°12'0 0.0
2016-Sep-19 16:21N 42°49' E 010°12'0 0.0
2016-Sep-19 14:22N 42°49' E 010°12'0 0.0
2016-Sep-19 12:27N 42°49' E 010°12'0 0.0
2016-Sep-19 11:30N 42°49' E 010°12'1 0.6
2016-Sep-19 09:29N 42°49' E 010°13'  
Track history (hours):
 
Tides and Currents Weather Stations Pressure Air Temp Water Temp Dewpoint Dewpoint Depression Visibility Wind Speed Wind Dir Waves Ship Positions

Nautilus

Last reported at 2016-Sep-28 08:34 UTC. Time now 2016-Sep-28 10:21 UTC.
Position N 42°49' E 010°12'.

Length 25 m.

Type: Ship. MMSI: 247205700.

Date/timePositionNaut miles runAvg speedWind from/ knotsBaromVisibWave heightAir tempDewpointWater temp
2016-Sep-28 08:34N 42°49' E 010°12'0 0.0
2016-Sep-28 03:30N 42°49' E 010°12'0 0.0
2016-Sep-28 02:34N 42°49' E 010°12'0 0.0
2016-Sep-28 01:34N 42°49' E 010°12'0 0.0
2016-Sep-27 23:32N 42°49' E 010°12'0 0.0
2016-Sep-27 19:34N 42°49' E 010°12'0 0.0
2016-Sep-27 13:33N 42°48' E 010°12'0 0.1
2016-Sep-27 10:32N 42°49' E 010°12'0 0.0
2016-Sep-27 00:33N 42°49' E 010°12'0 0.0
2016-Sep-26 20:33N 42°49' E 010°12'0 0.0
2016-Sep-26 19:34N 42°49' E 010°12'3 0.7
2016-Sep-26 15:32N 42°49' E 010°08'3 1.4
2016-Sep-26 13:32N 42°48' E 010°12'0 0.1
2016-Sep-26 11:13N 42°49' E 010°12'0 0.0
2016-Sep-25 21:20N 42°49' E 010°12'0 0.0
2016-Sep-25 17:33N 42°49' E 010°12'0 0.0
2016-Sep-25 16:30N 42°49' E 010°12'2 2.5
2016-Sep-25 15:32N 42°49' E 010°09'2 0.8
2016-Sep-25 12:32N 42°48' E 010°12'0 0.2
2016-Sep-25 11:33N 42°49' E 010°12'0 0.0
2016-Sep-25 10:32N 42°49' E 010°12'0 0.0
2016-Sep-25 09:34N 42°49' E 010°12'0 0.0
2016-Sep-25 07:34N 42°49' E 010°12'0 0.0
2016-Sep-25 04:33N 42°49' E 010°12'0 0.0
2016-Sep-25 00:32N 42°49' E 010°12'0 0.0
2016-Sep-24 22:31N 42°49' E 010°12'0 0.0
2016-Sep-24 21:33N 42°49' E 010°12'0 0.0
2016-Sep-24 19:33N 42°49' E 010°12'0 0.0
2016-Sep-24 18:34N 42°49' E 010°12'0 0.0
2016-Sep-24 17:34N 42°49' E 010°12'0 0.0
2016-Sep-24 16:33N 42°49' E 010°12'3 1.3
2016-Sep-24 14:03N 42°48' E 010°07'3 2.2
2016-Sep-24 12:33N 42°48' E 010°12'0 0.0
2016-Sep-24 09:31N 42°49' E 010°12'0 0.0
2016-Sep-24 03:33N 42°49' E 010°12'0 0.0
2016-Sep-24 00:21N 42°49' E 010°12'0 0.0
2016-Sep-23 19:32N 42°49' E 010°12'0 0.0
2016-Sep-23 16:24N 42°49' E 010°12'0 0.1
2016-Sep-23 13:19N 42°48' E 010°12'0 0.0
2016-Sep-23 09:33N 42°49' E 010°12'0 0.0
2016-Sep-23 06:27N 42°49' E 010°12'0 0.0
2016-Sep-23 04:32N 42°49' E 010°12'0 0.0
2016-Sep-23 03:29N 42°49' E 010°12'0 0.0
2016-Sep-23 02:31N 42°49' E 010°12'0 0.0
2016-Sep-23 01:33N 42°49' E 010°12'0 0.0
2016-Sep-23 00:32N 42°49' E 010°12'0 0.0
2016-Sep-22 23:30N 42°49' E 010°12'0 0.0
2016-Sep-22 20:32N 42°49' E 010°12'0 0.0
2016-Sep-22 12:33N 42°48' E 010°12'0 0.0
2016-Sep-22 03:30N 42°49' E 010°12'0 0.0
2016-Sep-21 19:32N 42°49' E 010°12'0 0.0
2016-Sep-21 16:33N 42°49' E 010°12'0 0.0
2016-Sep-20 17:33N 42°49' E 010°12'0 0.0
2016-Sep-20 13:33N 42°48' E 010°12'0 0.0
2016-Sep-20 10:32N 42°49' E 010°12'0 0.0
2016-Sep-20 08:30N 42°49' E 010°12'0 0.0
2016-Sep-20 02:33N 42°49' E 010°12'0 0.0
2016-Sep-19 23:33N 42°49' E 010°12'0 0.0
2016-Sep-19 19:31N 42°49' E 010°12'0 0.0
2016-Sep-19 18:31N 42°49' E 010°12'0 0.0
2016-Sep-19 16:21N 42°49' E 010°12'0 0.0
2016-Sep-19 14:22N 42°49' E 010°12'0 0.0
2016-Sep-19 12:27N 42°49' E 010°12'0 0.0
2016-Sep-19 11:30N 42°49' E 010°12'1 0.6
2016-Sep-19 09:29N 42°49' E 010°13'  

Dump ship's entire track history